sensor_id;sensor_type;location;lat;lon;timestamp;P1;durP1;ratioP1;P2;durP2;ratioP2
13349;SDS011;6744;53.190;6.576;2023-08-24T00:00:12;1.97;;;1.70;;
13349;SDS011;6744;53.190;6.576;2023-08-24T00:02:38;2.70;;;1.63;;
13349;SDS011;6744;53.190;6.576;2023-08-24T00:05:04;2.27;;;1.73;;
13349;SDS011;6744;53.190;6.576;2023-08-24T00:07:30;1.93;;;1.53;;
13349;SDS011;6744;53.190;6.576;2023-08-24T00:09:57;2.23;;;1.50;;
13349;SDS011;6744;53.190;6.576;2023-08-24T00:12:22;2.47;;;1.60;;
13349;SDS011;6744;53.190;6.576;2023-08-24T00:14:48;1.50;;;1.40;;
13349;SDS011;6744;53.190;6.576;2023-08-24T00:17:13;2.53;;;1.90;;
13349;SDS011;6744;53.190;6.576;2023-08-24T00:19:38;2.60;;;1.70;;
13349;SDS011;6744;53.190;6.576;2023-08-24T00:22:04;2.23;;;1.70;;
13349;SDS011;6744;53.190;6.576;2023-08-24T00:24:29;1.60;;;1.50;;
13349;SDS011;6744;53.190;6.576;2023-08-24T00:26:54;2.33;;;1.40;;
13349;SDS011;6744;53.190;6.576;2023-08-24T00:29:20;2.90;;;2.10;;
13349;SDS011;6744;53.190;6.576;2023-08-24T00:31:46;2.40;;;2.20;;
13349;SDS011;6744;53.190;6.576;2023-08-24T00:34:12;2.57;;;2.37;;
13349;SDS011;6744;53.190;6.576;2023-08-24T00:36:37;2.70;;;2.50;;
13349;SDS011;6744;53.190;6.576;2023-08-24T00:39:03;3.87;;;2.60;;
13349;SDS011;6744;53.190;6.576;2023-08-24T00:41:28;3.20;;;2.90;;
13349;SDS011;6744;53.190;6.576;2023-08-24T00:43:53;2.70;;;2.50;;
13349;SDS011;6744;53.190;6.576;2023-08-24T00:46:19;2.80;;;2.57;;
13349;SDS011;6744;53.190;6.576;2023-08-24T00:48:44;3.13;;;2.90;;
13349;SDS011;6744;53.190;6.576;2023-08-24T00:51:10;2.80;;;2.60;;
13349;SDS011;6744;53.190;6.576;2023-08-24T00:53:35;2.87;;;2.57;;
13349;SDS011;6744;53.190;6.576;2023-08-24T00:56:02;3.30;;;2.77;;
13349;SDS011;6744;53.190;6.576;2023-08-24T00:58:28;3.07;;;2.77;;
13349;SDS011;6744;53.190;6.576;2023-08-24T01:00:53;2.43;;;2.23;;
13349;SDS011;6744;53.190;6.576;2023-08-24T01:03:21;2.97;;;2.30;;
13349;SDS011;6744;53.190;6.576;2023-08-24T01:05:48;4.13;;;2.63;;
13349;SDS011;6744;53.190;6.576;2023-08-24T01:08:13;3.73;;;2.67;;
13349;SDS011;6744;53.190;6.576;2023-08-24T01:10:40;2.40;;;2.13;;
13349;SDS011;6744;53.190;6.576;2023-08-24T01:13:12;3.63;;;2.83;;
13349;SDS011;6744;53.190;6.576;2023-08-24T01:15:58;2.40;;;2.20;;
13349;SDS011;6744;53.190;6.576;2023-08-24T01:18:28;2.70;;;2.20;;
13349;SDS011;6744;53.190;6.576;2023-08-24T01:20:54;3.07;;;2.60;;
13349;SDS011;6744;53.190;6.576;2023-08-24T01:28:28;2.90;;;2.47;;
13349;SDS011;6744;53.190;6.576;2023-08-24T01:30:55;3.07;;;2.63;;
13349;SDS011;6744;53.190;6.576;2023-08-24T01:33:21;2.80;;;2.50;;
13349;SDS011;6744;53.190;6.576;2023-08-24T01:35:46;2.83;;;2.53;;
13349;SDS011;6744;53.190;6.576;2023-08-24T01:38:11;4.27;;;2.47;;
13349;SDS011;6744;53.190;6.576;2023-08-24T01:43:21;2.60;;;2.40;;
13349;SDS011;6744;53.190;6.576;2023-08-24T01:45:51;3.87;;;2.60;;
13349;SDS011;6744;53.190;6.576;2023-08-24T01:48:17;2.70;;;2.50;;
13349;SDS011;6744;53.190;6.576;2023-08-24T01:50:42;3.10;;;2.60;;
13349;SDS011;6744;53.190;6.576;2023-08-24T01:53:08;3.67;;;3.20;;
13349;SDS011;6744;53.190;6.576;2023-08-24T01:55:34;3.67;;;2.93;;
13349;SDS011;6744;53.190;6.576;2023-08-24T01:57:59;3.67;;;3.20;;
13349;SDS011;6744;53.190;6.576;2023-08-24T02:00:25;3.60;;;3.30;;
13349;SDS011;6744;53.190;6.576;2023-08-24T02:02:50;5.13;;;3.50;;
13349;SDS011;6744;53.190;6.576;2023-08-24T02:05:16;3.47;;;3.00;;
13349;SDS011;6744;53.190;6.576;2023-08-24T02:07:41;4.53;;;3.20;;
13349;SDS011;6744;53.190;6.576;2023-08-24T02:10:06;3.17;;;2.87;;
13349;SDS011;6744;53.190;6.576;2023-08-24T02:12:32;3.27;;;2.97;;
13349;SDS011;6744;53.190;6.576;2023-08-24T02:14:57;4.83;;;3.47;;
13349;SDS011;6744;53.190;6.576;2023-08-24T02:17:23;4.00;;;3.20;;
13349;SDS011;6744;53.190;6.576;2023-08-24T02:19:48;3.87;;;3.03;;
13349;SDS011;6744;53.190;6.576;2023-08-24T02:22:14;3.57;;;3.20;;
13349;SDS011;6744;53.190;6.576;2023-08-24T02:24:39;3.47;;;3.17;;
13349;SDS011;6744;53.190;6.576;2023-08-24T02:27:05;3.03;;;2.73;;
13349;SDS011;6744;53.190;6.576;2023-08-24T02:29:30;3.33;;;3.03;;
13349;SDS011;6744;53.190;6.576;2023-08-24T02:31:56;3.47;;;2.80;;
13349;SDS011;6744;53.190;6.576;2023-08-24T02:34:21;3.00;;;2.63;;
13349;SDS011;6744;53.190;6.576;2023-08-24T02:36:47;3.07;;;2.60;;
13349;SDS011;6744;53.190;6.576;2023-08-24T02:39:12;3.47;;;3.03;;
13349;SDS011;6744;53.190;6.576;2023-08-24T02:41:38;3.53;;;3.00;;
13349;SDS011;6744;53.190;6.576;2023-08-24T02:44:03;4.83;;;3.20;;
13349;SDS011;6744;53.190;6.576;2023-08-24T02:46:29;4.30;;;3.90;;
13349;SDS011;6744;53.190;6.576;2023-08-24T02:48:54;3.83;;;3.50;;
13349;SDS011;6744;53.190;6.576;2023-08-24T02:51:23;4.83;;;4.43;;
13349;SDS011;6744;53.190;6.576;2023-08-24T02:53:49;4.47;;;4.03;;
13349;SDS011;6744;53.190;6.576;2023-08-24T02:56:15;5.53;;;4.73;;
13349;SDS011;6744;53.190;6.576;2023-08-24T02:58:40;5.10;;;4.60;;
13349;SDS011;6744;53.190;6.576;2023-08-24T03:01:06;6.17;;;5.37;;
13349;SDS011;6744;53.190;6.576;2023-08-24T03:03:32;5.53;;;5.03;;
13349;SDS011;6744;53.190;6.576;2023-08-24T03:05:59;5.27;;;4.77;;
13349;SDS011;6744;53.190;6.576;2023-08-24T03:08:26;4.90;;;4.40;;
13349;SDS011;6744;53.190;6.576;2023-08-24T03:10:51;5.10;;;4.60;;
13349;SDS011;6744;53.190;6.576;2023-08-24T03:13:17;4.90;;;4.40;;
13349;SDS011;6744;53.190;6.576;2023-08-24T03:15:42;5.30;;;4.73;;
13349;SDS011;6744;53.190;6.576;2023-08-24T03:18:09;5.83;;;5.33;;
13349;SDS011;6744;53.190;6.576;2023-08-24T03:20:36;5.57;;;4.77;;
13349;SDS011;6744;53.190;6.576;2023-08-24T03:23:01;5.63;;;5.10;;
13349;SDS011;6744;53.190;6.576;2023-08-24T03:25:28;4.53;;;4.23;;
13349;SDS011;6744;53.190;6.576;2023-08-24T03:27:53;5.80;;;4.43;;
13349;SDS011;6744;53.190;6.576;2023-08-24T03:30:19;4.83;;;4.33;;
13349;SDS011;6744;53.190;6.576;2023-08-24T03:32:44;4.57;;;4.03;;
13349;SDS011;6744;53.190;6.576;2023-08-24T03:35:09;4.20;;;3.73;;
13349;SDS011;6744;53.190;6.576;2023-08-24T03:37:35;4.10;;;3.70;;
13349;SDS011;6744;53.190;6.576;2023-08-24T03:40:00;4.67;;;3.93;;
13349;SDS011;6744;53.190;6.576;2023-08-24T03:42:25;6.47;;;4.50;;
13349;SDS011;6744;53.190;6.576;2023-08-24T03:44:51;4.90;;;4.40;;
13349;SDS011;6744;53.190;6.576;2023-08-24T03:47:16;4.53;;;4.13;;
13349;SDS011;6744;53.190;6.576;2023-08-24T03:49:42;5.33;;;4.10;;
13349;SDS011;6744;53.190;6.576;2023-08-24T03:52:08;4.30;;;3.90;;
13349;SDS011;6744;53.190;6.576;2023-08-24T03:54:34;5.03;;;4.53;;
13349;SDS011;6744;53.190;6.576;2023-08-24T03:56:59;4.77;;;4.27;;
13349;SDS011;6744;53.190;6.576;2023-08-24T03:59:24;5.33;;;4.03;;
13349;SDS011;6744;53.190;6.576;2023-08-24T04:01:50;4.60;;;4.20;;
13349;SDS011;6744;53.190;6.576;2023-08-24T04:04:15;4.37;;;3.97;;
13349;SDS011;6744;53.190;6.576;2023-08-24T04:06:40;4.30;;;3.90;;
13349;SDS011;6744;53.190;6.576;2023-08-24T04:09:06;4.27;;;3.87;;
13349;SDS011;6744;53.190;6.576;2023-08-24T04:11:31;4.53;;;4.13;;
13349;SDS011;6744;53.190;6.576;2023-08-24T04:13:57;4.50;;;3.97;;
13349;SDS011;6744;53.190;6.576;2023-08-24T04:16:22;4.57;;;3.77;;
13349;SDS011;6744;53.190;6.576;2023-08-24T04:18:47;4.37;;;3.77;;
13349;SDS011;6744;53.190;6.576;2023-08-24T04:21:13;4.77;;;4.30;;
13349;SDS011;6744;53.190;6.576;2023-08-24T04:23:38;4.60;;;4.20;;
13349;SDS011;6744;53.190;6.576;2023-08-24T04:26:07;5.03;;;4.17;;
13349;SDS011;6744;53.190;6.576;2023-08-24T04:28:32;4.47;;;4.07;;
13349;SDS011;6744;53.190;6.576;2023-08-24T04:30:58;4.30;;;3.90;;
13349;SDS011;6744;53.190;6.576;2023-08-24T04:33:23;5.53;;;4.33;;
13349;SDS011;6744;53.190;6.576;2023-08-24T04:35:49;5.40;;;3.97;;
13349;SDS011;6744;53.190;6.576;2023-08-24T04:38:15;4.40;;;3.70;;
13349;SDS011;6744;53.190;6.576;2023-08-24T04:40:58;3.60;;;3.30;;
13349;SDS011;6744;53.190;6.576;2023-08-24T04:43:24;4.37;;;3.80;;
13349;SDS011;6744;53.190;6.576;2023-08-24T04:45:53;3.77;;;3.43;;
13349;SDS011;6744;53.190;6.576;2023-08-24T04:48:22;3.60;;;3.30;;
13349;SDS011;6744;53.190;6.576;2023-08-24T04:50:48;3.90;;;3.50;;
13349;SDS011;6744;53.190;6.576;2023-08-24T04:53:15;4.20;;;3.27;;
13349;SDS011;6744;53.190;6.576;2023-08-24T04:55:42;4.20;;;3.80;;
13349;SDS011;6744;53.190;6.576;2023-08-24T04:58:08;4.33;;;3.90;;
13349;SDS011;6744;53.190;6.576;2023-08-24T05:00:34;5.97;;;3.90;;
13349;SDS011;6744;53.190;6.576;2023-08-24T05:03:00;4.10;;;3.70;;
13349;SDS011;6744;53.190;6.576;2023-08-24T05:05:28;4.07;;;3.67;;
13349;SDS011;6744;53.190;6.576;2023-08-24T05:07:54;4.60;;;4.00;;
13349;SDS011;6744;53.190;6.576;2023-08-24T05:10:19;5.37;;;4.13;;
13349;SDS011;6744;53.190;6.576;2023-08-24T05:12:45;5.10;;;4.27;;
13349;SDS011;6744;53.190;6.576;2023-08-24T05:15:10;3.97;;;3.63;;
13349;SDS011;6744;53.190;6.576;2023-08-24T05:17:36;3.80;;;3.40;;
13349;SDS011;6744;53.190;6.576;2023-08-24T05:20:01;4.50;;;3.50;;
13349;SDS011;6744;53.190;6.576;2023-08-24T05:22:28;3.90;;;3.50;;
13349;SDS011;6744;53.190;6.576;2023-08-24T05:24:54;6.47;;;4.40;;
13349;SDS011;6744;53.190;6.576;2023-08-24T05:27:19;5.23;;;4.10;;
13349;SDS011;6744;53.190;6.576;2023-08-24T05:29:44;5.73;;;4.17;;
13349;SDS011;6744;53.190;6.576;2023-08-24T05:32:10;6.47;;;4.20;;
13349;SDS011;6744;53.190;6.576;2023-08-24T05:34:35;6.37;;;4.27;;
13349;SDS011;6744;53.190;6.576;2023-08-24T05:37:01;4.17;;;3.77;;
13349;SDS011;6744;53.190;6.576;2023-08-24T05:39:26;4.57;;;3.97;;
13349;SDS011;6744;53.190;6.576;2023-08-24T05:41:52;4.90;;;3.80;;
13349;SDS011;6744;53.190;6.576;2023-08-24T05:44:18;4.57;;;3.33;;
13349;SDS011;6744;53.190;6.576;2023-08-24T05:46:46;3.90;;;3.50;;
13349;SDS011;6744;53.190;6.576;2023-08-24T05:49:12;4.17;;;3.73;;
13349;SDS011;6744;53.190;6.576;2023-08-24T05:51:37;4.17;;;3.60;;
13349;SDS011;6744;53.190;6.576;2023-08-24T05:54:03;5.37;;;3.93;;
13349;SDS011;6744;53.190;6.576;2023-08-24T05:56:28;6.37;;;4.73;;
13349;SDS011;6744;53.190;6.576;2023-08-24T05:58:54;5.90;;;4.13;;
13349;SDS011;6744;53.190;6.576;2023-08-24T06:01:19;7.87;;;4.10;;
13349;SDS011;6744;53.190;6.576;2023-08-24T06:03:45;5.33;;;4.43;;
13349;SDS011;6744;53.190;6.576;2023-08-24T06:06:10;6.97;;;5.00;;
13349;SDS011;6744;53.190;6.576;2023-08-24T06:08:35;7.90;;;5.80;;
13349;SDS011;6744;53.190;6.576;2023-08-24T06:11:01;7.67;;;6.80;;
13349;SDS011;6744;53.190;6.576;2023-08-24T06:13:26;7.87;;;5.63;;
13349;SDS011;6744;53.190;6.576;2023-08-24T06:15:52;5.97;;;5.00;;
13349;SDS011;6744;53.190;6.576;2023-08-24T06:18:19;6.53;;;5.47;;
13349;SDS011;6744;53.190;6.576;2023-08-24T06:20:44;7.60;;;5.70;;
13349;SDS011;6744;53.190;6.576;2023-08-24T06:23:11;4.87;;;4.43;;
13349;SDS011;6744;53.190;6.576;2023-08-24T06:25:38;6.67;;;5.30;;
13349;SDS011;6744;53.190;6.576;2023-08-24T06:28:03;6.57;;;4.97;;
13349;SDS011;6744;53.190;6.576;2023-08-24T06:30:29;7.53;;;5.70;;
13349;SDS011;6744;53.190;6.576;2023-08-24T06:33:01;7.03;;;4.87;;
13349;SDS011;6744;53.190;6.576;2023-08-24T06:35:28;5.07;;;4.57;;
13349;SDS011;6744;53.190;6.576;2023-08-24T06:37:53;6.77;;;4.30;;
13349;SDS011;6744;53.190;6.576;2023-08-24T06:40:18;6.63;;;4.10;;
13349;SDS011;6744;53.190;6.576;2023-08-24T06:42:44;5.87;;;3.87;;
13349;SDS011;6744;53.190;6.576;2023-08-24T06:45:09;7.43;;;3.77;;
13349;SDS011;6744;53.190;6.576;2023-08-24T06:47:35;5.93;;;4.53;;
13349;SDS011;6744;53.190;6.576;2023-08-24T06:50:01;6.17;;;4.53;;
13349;SDS011;6744;53.190;6.576;2023-08-24T06:52:26;5.10;;;3.30;;
13349;SDS011;6744;53.190;6.576;2023-08-24T06:54:51;5.20;;;3.87;;
13349;SDS011;6744;53.190;6.576;2023-08-24T06:57:20;4.13;;;3.27;;
13349;SDS011;6744;53.190;6.576;2023-08-24T06:59:45;5.13;;;2.80;;
13349;SDS011;6744;53.190;6.576;2023-08-24T07:02:11;4.90;;;2.90;;
13349;SDS011;6744;53.190;6.576;2023-08-24T07:04:36;3.73;;;2.70;;
13349;SDS011;6744;53.190;6.576;2023-08-24T07:07:03;3.67;;;2.63;;
13349;SDS011;6744;53.190;6.576;2023-08-24T07:09:29;4.50;;;2.27;;
13349;SDS011;6744;53.190;6.576;2023-08-24T07:11:54;5.23;;;2.93;;
13349;SDS011;6744;53.190;6.576;2023-08-24T07:14:19;5.43;;;2.90;;
13349;SDS011;6744;53.190;6.576;2023-08-24T07:16:45;5.57;;;2.90;;
13349;SDS011;6744;53.190;6.576;2023-08-24T07:19:10;4.77;;;2.83;;
13349;SDS011;6744;53.190;6.576;2023-08-24T07:21:36;5.33;;;3.07;;
13349;SDS011;6744;53.190;6.576;2023-08-24T07:24:01;5.20;;;2.90;;
13349;SDS011;6744;53.190;6.576;2023-08-24T07:26:27;4.17;;;2.90;;
13349;SDS011;6744;53.190;6.576;2023-08-24T07:28:52;6.17;;;3.40;;
13349;SDS011;6744;53.190;6.576;2023-08-24T07:31:18;4.80;;;3.37;;
13349;SDS011;6744;53.190;6.576;2023-08-24T07:33:44;3.90;;;3.60;;
13349;SDS011;6744;53.190;6.576;2023-08-24T07:36:09;4.13;;;3.13;;
13349;SDS011;6744;53.190;6.576;2023-08-24T07:38:34;4.23;;;2.73;;
13349;SDS011;6744;53.190;6.576;2023-08-24T07:41:00;5.30;;;3.00;;
13349;SDS011;6744;53.190;6.576;2023-08-24T07:43:25;4.37;;;2.70;;
13349;SDS011;6744;53.190;6.576;2023-08-24T07:45:51;6.50;;;3.00;;
13349;SDS011;6744;53.190;6.576;2023-08-24T07:48:17;4.60;;;3.37;;
13349;SDS011;6744;53.190;6.576;2023-08-24T07:50:42;4.90;;;3.53;;
13349;SDS011;6744;53.190;6.576;2023-08-24T07:53:08;5.00;;;3.90;;
13349;SDS011;6744;53.190;6.576;2023-08-24T07:55:33;4.43;;;3.80;;
13349;SDS011;6744;53.190;6.576;2023-08-24T07:57:59;6.00;;;4.43;;
13349;SDS011;6744;53.190;6.576;2023-08-24T08:00:24;6.47;;;4.47;;
13349;SDS011;6744;53.190;6.576;2023-08-24T08:02:51;4.37;;;3.63;;
13349;SDS011;6744;53.190;6.576;2023-08-24T08:05:17;5.20;;;3.90;;
13349;SDS011;6744;53.190;6.576;2023-08-24T08:07:42;5.70;;;4.50;;
13349;SDS011;6744;53.190;6.576;2023-08-24T08:10:08;7.33;;;4.00;;
13349;SDS011;6744;53.190;6.576;2023-08-24T08:12:34;5.63;;;4.53;;
13349;SDS011;6744;53.190;6.576;2023-08-24T08:15:00;5.33;;;3.83;;
13349;SDS011;6744;53.190;6.576;2023-08-24T08:17:25;4.80;;;3.63;;
13349;SDS011;6744;53.190;6.576;2023-08-24T08:19:55;5.57;;;4.43;;
13349;SDS011;6744;53.190;6.576;2023-08-24T08:22:21;5.93;;;4.23;;
13349;SDS011;6744;53.190;6.576;2023-08-24T08:24:46;7.33;;;3.97;;
13349;SDS011;6744;53.190;6.576;2023-08-24T08:27:12;5.00;;;3.93;;
13349;SDS011;6744;53.190;6.576;2023-08-24T08:29:38;6.27;;;3.40;;
13349;SDS011;6744;53.190;6.576;2023-08-24T08:32:03;5.33;;;3.30;;
13349;SDS011;6744;53.190;6.576;2023-08-24T08:34:30;7.60;;;3.93;;
13349;SDS011;6744;53.190;6.576;2023-08-24T08:36:56;4.57;;;3.10;;
13349;SDS011;6744;53.190;6.576;2023-08-24T08:39:22;4.30;;;3.37;;
13349;SDS011;6744;53.190;6.576;2023-08-24T08:41:47;4.17;;;3.40;;
13349;SDS011;6744;53.190;6.576;2023-08-24T08:44:14;5.13;;;3.47;;
13349;SDS011;6744;53.190;6.576;2023-08-24T08:46:42;3.80;;;2.70;;
13349;SDS011;6744;53.190;6.576;2023-08-24T08:49:08;4.87;;;4.20;;
13349;SDS011;6744;53.190;6.576;2023-08-24T08:51:37;5.57;;;3.43;;
13349;SDS011;6744;53.190;6.576;2023-08-24T08:54:03;6.27;;;4.10;;
13349;SDS011;6744;53.190;6.576;2023-08-24T08:56:30;5.23;;;3.50;;
13349;SDS011;6744;53.190;6.576;2023-08-24T08:58:56;6.50;;;4.40;;
13349;SDS011;6744;53.190;6.576;2023-08-24T09:01:24;5.37;;;4.37;;
13349;SDS011;6744;53.190;6.576;2023-08-24T09:03:49;3.57;;;2.63;;
13349;SDS011;6744;53.190;6.576;2023-08-24T09:06:16;5.10;;;3.10;;
13349;SDS011;6744;53.190;6.576;2023-08-24T09:08:41;4.80;;;3.63;;
13349;SDS011;6744;53.190;6.576;2023-08-24T09:11:07;4.63;;;3.83;;
13349;SDS011;6744;53.190;6.576;2023-08-24T09:13:33;4.33;;;3.90;;
13349;SDS011;6744;53.190;6.576;2023-08-24T09:16:05;5.33;;;2.90;;
13349;SDS011;6744;53.190;6.576;2023-08-24T09:18:38;5.47;;;3.43;;
13349;SDS011;6744;53.190;6.576;2023-08-24T09:21:07;4.07;;;3.07;;
13349;SDS011;6744;53.190;6.576;2023-08-24T09:23:37;3.60;;;2.70;;
13349;SDS011;6744;53.190;6.576;2023-08-24T09:26:03;4.67;;;3.30;;
13349;SDS011;6744;53.190;6.576;2023-08-24T09:28:29;3.97;;;3.07;;
13349;SDS011;6744;53.190;6.576;2023-08-24T09:30:55;6.90;;;4.20;;
13349;SDS011;6744;53.190;6.576;2023-08-24T09:33:21;4.77;;;3.47;;
13349;SDS011;6744;53.190;6.576;2023-08-24T09:35:54;5.27;;;3.57;;
13349;SDS011;6744;53.190;6.576;2023-08-24T09:38:23;4.20;;;3.10;;
13349;SDS011;6744;53.190;6.576;2023-08-24T09:40:52;5.80;;;3.20;;
13349;SDS011;6744;53.190;6.576;2023-08-24T09:43:20;4.33;;;3.40;;
13349;SDS011;6744;53.190;6.576;2023-08-24T09:45:53;5.67;;;3.60;;
13349;SDS011;6744;53.190;6.576;2023-08-24T09:48:19;5.50;;;3.63;;
13349;SDS011;6744;53.190;6.576;2023-08-24T09:50:45;4.00;;;3.50;;
13349;SDS011;6744;53.190;6.576;2023-08-24T09:53:15;6.17;;;3.70;;
13349;SDS011;6744;53.190;6.576;2023-08-24T09:55:42;4.43;;;4.00;;
13349;SDS011;6744;53.190;6.576;2023-08-24T09:58:32;4.03;;;2.97;;
13349;SDS011;6744;53.190;6.576;2023-08-24T10:00:57;4.10;;;2.63;;
13349;SDS011;6744;53.190;6.576;2023-08-24T10:03:26;5.70;;;4.93;;
13349;SDS011;6744;53.190;6.576;2023-08-24T10:05:56;3.57;;;3.23;;
13349;SDS011;6744;53.190;6.576;2023-08-24T10:08:39;4.80;;;4.10;;
13349;SDS011;6744;53.190;6.576;2023-08-24T10:11:07;4.27;;;3.30;;
13349;SDS011;6744;53.190;6.576;2023-08-24T10:13:40;6.73;;;4.30;;
13349;SDS011;6744;53.190;6.576;2023-08-24T10:16:09;6.67;;;3.73;;
13349;SDS011;6744;53.190;6.576;2023-08-24T10:18:38;6.67;;;5.00;;
13349;SDS011;6744;53.190;6.576;2023-08-24T10:21:05;5.07;;;3.47;;
13349;SDS011;6744;53.190;6.576;2023-08-24T10:23:31;3.73;;;3.33;;
13349;SDS011;6744;53.190;6.576;2023-08-24T10:25:59;6.53;;;3.20;;
13349;SDS011;6744;53.190;6.576;2023-08-24T10:28:25;4.67;;;3.63;;
13349;SDS011;6744;53.190;6.576;2023-08-24T10:30:51;4.70;;;4.07;;
13349;SDS011;6744;53.190;6.576;2023-08-24T10:33:17;6.20;;;4.43;;
13349;SDS011;6744;53.190;6.576;2023-08-24T10:35:43;6.30;;;4.23;;
13349;SDS011;6744;53.190;6.576;2023-08-24T10:38:22;3.97;;;3.57;;
13349;SDS011;6744;53.190;6.576;2023-08-24T10:40:51;4.87;;;3.40;;
13349;SDS011;6744;53.190;6.576;2023-08-24T10:43:18;3.53;;;3.23;;
13349;SDS011;6744;53.190;6.576;2023-08-24T10:45:57;3.63;;;3.33;;
13349;SDS011;6744;53.190;6.576;2023-08-24T10:48:28;4.27;;;3.13;;
13349;SDS011;6744;53.190;6.576;2023-08-24T10:56:20;4.60;;;3.70;;
13349;SDS011;6744;53.190;6.576;2023-08-24T10:58:46;6.33;;;3.53;;
13349;SDS011;6744;53.190;6.576;2023-08-24T11:01:16;4.23;;;3.60;;
13349;SDS011;6744;53.190;6.576;2023-08-24T11:03:46;5.40;;;3.73;;
13349;SDS011;6744;53.190;6.576;2023-08-24T11:06:17;3.90;;;3.50;;
13349;SDS011;6744;53.190;6.576;2023-08-24T11:09:06;5.87;;;4.33;;
13349;SDS011;6744;53.190;6.576;2023-08-24T11:11:38;4.00;;;3.70;;
13349;SDS011;6744;53.190;6.576;2023-08-24T11:14:16;5.37;;;3.93;;
13349;SDS011;6744;53.190;6.576;2023-08-24T11:16:46;4.67;;;3.70;;
13349;SDS011;6744;53.190;6.576;2023-08-24T11:19:13;3.70;;;3.37;;
13349;SDS011;6744;53.190;6.576;2023-08-24T11:21:38;5.73;;;4.07;;
13349;SDS011;6744;53.190;6.576;2023-08-24T11:24:05;3.90;;;3.23;;
13349;SDS011;6744;53.190;6.576;2023-08-24T11:26:31;4.10;;;3.80;;
13349;SDS011;6744;53.190;6.576;2023-08-24T11:28:56;4.67;;;4.17;;
13349;SDS011;6744;53.190;6.576;2023-08-24T11:31:25;4.57;;;4.13;;
13349;SDS011;6744;53.190;6.576;2023-08-24T11:33:54;4.60;;;3.30;;
13349;SDS011;6744;53.190;6.576;2023-08-24T11:36:20;4.23;;;3.80;;
13349;SDS011;6744;53.190;6.576;2023-08-24T11:38:46;3.47;;;3.17;;
13349;SDS011;6744;53.190;6.576;2023-08-24T11:41:15;4.47;;;4.00;;
13349;SDS011;6744;53.190;6.576;2023-08-24T11:43:45;3.80;;;3.37;;
13349;SDS011;6744;53.190;6.576;2023-08-24T11:46:12;4.17;;;3.50;;
13349;SDS011;6744;53.190;6.576;2023-08-24T11:48:38;3.93;;;3.53;;
13349;SDS011;6744;53.190;6.576;2023-08-24T11:51:07;9.90;;;7.47;;
13349;SDS011;6744;53.190;6.576;2023-08-24T11:53:36;6.10;;;4.93;;
13349;SDS011;6744;53.190;6.576;2023-08-24T11:56:02;5.17;;;4.40;;
13349;SDS011;6744;53.190;6.576;2023-08-24T11:58:27;5.40;;;4.07;;
13349;SDS011;6744;53.190;6.576;2023-08-24T12:00:53;5.47;;;4.97;;
13349;SDS011;6744;53.190;6.576;2023-08-24T12:03:18;6.10;;;5.03;;
13349;SDS011;6744;53.190;6.576;2023-08-24T12:05:44;7.17;;;5.30;;
13349;SDS011;6744;53.190;6.576;2023-08-24T12:08:10;5.37;;;4.47;;
13349;SDS011;6744;53.190;6.576;2023-08-24T12:10:40;5.13;;;4.63;;
13349;SDS011;6744;53.190;6.576;2023-08-24T12:13:07;6.23;;;4.73;;
13349;SDS011;6744;53.190;6.576;2023-08-24T12:15:36;4.50;;;4.10;;
13349;SDS011;6744;53.190;6.576;2023-08-24T12:18:11;6.57;;;5.40;;
13349;SDS011;6744;53.190;6.576;2023-08-24T12:20:37;6.47;;;5.30;;
13349;SDS011;6744;53.190;6.576;2023-08-24T12:23:02;4.43;;;4.03;;
13349;SDS011;6744;53.190;6.576;2023-08-24T12:25:28;4.00;;;3.40;;
13349;SDS011;6744;53.190;6.576;2023-08-24T12:30:48;6.77;;;5.47;;
13349;SDS011;6744;53.190;6.576;2023-08-24T12:33:25;5.60;;;5.00;;
13349;SDS011;6744;53.190;6.576;2023-08-24T12:35:54;5.43;;;4.90;;
13349;SDS011;6744;53.190;6.576;2023-08-24T12:38:20;7.13;;;5.30;;
13349;SDS011;6744;53.190;6.576;2023-08-24T12:40:49;6.53;;;5.03;;
13349;SDS011;6744;53.190;6.576;2023-08-24T12:43:15;5.07;;;4.57;;
13349;SDS011;6744;53.190;6.576;2023-08-24T12:45:40;4.80;;;4.33;;
13349;SDS011;6744;53.190;6.576;2023-08-24T12:48:06;6.73;;;6.20;;
13349;SDS011;6744;53.190;6.576;2023-08-24T12:50:35;6.20;;;4.67;;
13349;SDS011;6744;53.190;6.576;2023-08-24T12:53:01;6.03;;;4.30;;
13349;SDS011;6744;53.190;6.576;2023-08-24T12:55:27;4.27;;;3.40;;
13349;SDS011;6744;53.190;6.576;2023-08-24T12:57:52;3.50;;;3.20;;
13349;SDS011;6744;53.190;6.576;2023-08-24T13:00:18;5.00;;;4.57;;
13349;SDS011;6744;53.190;6.576;2023-08-24T13:02:44;4.27;;;3.87;;
13349;SDS011;6744;53.190;6.576;2023-08-24T13:05:09;4.40;;;4.00;;
13349;SDS011;6744;53.190;6.576;2023-08-24T13:07:35;4.00;;;3.60;;
13349;SDS011;6744;53.190;6.576;2023-08-24T13:10:01;4.67;;;4.13;;
13349;SDS011;6744;53.190;6.576;2023-08-24T13:12:27;5.50;;;3.83;;
13349;SDS011;6744;53.190;6.576;2023-08-24T13:14:53;4.27;;;3.80;;
13349;SDS011;6744;53.190;6.576;2023-08-24T13:17:18;4.00;;;3.70;;
13349;SDS011;6744;53.190;6.576;2023-08-24T13:19:43;4.60;;;3.50;;
13349;SDS011;6744;53.190;6.576;2023-08-24T13:22:10;4.37;;;3.97;;
13349;SDS011;6744;53.190;6.576;2023-08-24T13:24:35;4.03;;;3.60;;
13349;SDS011;6744;53.190;6.576;2023-08-24T13:27:01;3.70;;;3.40;;
13349;SDS011;6744;53.190;6.576;2023-08-24T13:29:28;3.23;;;2.93;;
13349;SDS011;6744;53.190;6.576;2023-08-24T13:31:53;3.80;;;3.50;;
13349;SDS011;6744;53.190;6.576;2023-08-24T13:34:18;3.60;;;3.30;;
13349;SDS011;6744;53.190;6.576;2023-08-24T13:36:44;3.53;;;3.23;;
13349;SDS011;6744;53.190;6.576;2023-08-24T13:39:09;3.60;;;3.30;;
13349;SDS011;6744;53.190;6.576;2023-08-24T13:41:35;5.63;;;3.43;;
13349;SDS011;6744;53.190;6.576;2023-08-24T13:44:01;4.33;;;3.87;;
13349;SDS011;6744;53.190;6.576;2023-08-24T13:46:27;3.80;;;3.50;;
13349;SDS011;6744;53.190;6.576;2023-08-24T13:48:52;4.20;;;3.80;;
13349;SDS011;6744;53.190;6.576;2023-08-24T13:51:17;3.83;;;3.43;;
13349;SDS011;6744;53.190;6.576;2023-08-24T13:53:43;4.10;;;3.80;;
13349;SDS011;6744;53.190;6.576;2023-08-24T13:56:08;4.40;;;4.00;;
13349;SDS011;6744;53.190;6.576;2023-08-24T13:58:33;4.20;;;3.80;;
13349;SDS011;6744;53.190;6.576;2023-08-24T14:00:59;4.50;;;4.10;;
13349;SDS011;6744;53.190;6.576;2023-08-24T14:03:24;4.60;;;4.20;;
13349;SDS011;6744;53.190;6.576;2023-08-24T14:05:54;5.03;;;4.57;;
13349;SDS011;6744;53.190;6.576;2023-08-24T14:08:20;5.03;;;4.53;;
13349;SDS011;6744;53.190;6.576;2023-08-24T14:10:46;4.20;;;3.80;;
13349;SDS011;6744;53.190;6.576;2023-08-24T14:13:13;5.37;;;4.70;;
13349;SDS011;6744;53.190;6.576;2023-08-24T14:15:39;4.20;;;3.80;;
13349;SDS011;6744;53.190;6.576;2023-08-24T14:18:05;4.80;;;4.40;;
13349;SDS011;6744;53.190;6.576;2023-08-24T14:20:30;4.33;;;3.93;;
13349;SDS011;6744;53.190;6.576;2023-08-24T14:22:56;4.37;;;4.00;;
13349;SDS011;6744;53.190;6.576;2023-08-24T14:25:21;4.50;;;4.10;;
13349;SDS011;6744;53.190;6.576;2023-08-24T14:27:47;3.70;;;3.40;;
13349;SDS011;6744;53.190;6.576;2023-08-24T14:30:13;4.17;;;3.87;;
13349;SDS011;6744;53.190;6.576;2023-08-24T14:32:38;3.77;;;3.40;;
13349;SDS011;6744;53.190;6.576;2023-08-24T14:35:04;4.30;;;3.90;;
13349;SDS011;6744;53.190;6.576;2023-08-24T14:37:29;4.10;;;3.80;;
13349;SDS011;6744;53.190;6.576;2023-08-24T14:39:55;4.10;;;3.70;;
13349;SDS011;6744;53.190;6.576;2023-08-24T14:42:20;4.47;;;4.17;;
13349;SDS011;6744;53.190;6.576;2023-08-24T14:44:46;4.23;;;3.93;;
13349;SDS011;6744;53.190;6.576;2023-08-24T14:47:11;3.93;;;3.63;;
13349;SDS011;6744;53.190;6.576;2023-08-24T14:49:36;5.30;;;4.30;;
13349;SDS011;6744;53.190;6.576;2023-08-24T14:52:02;3.40;;;3.20;;
13349;SDS011;6744;53.190;6.576;2023-08-24T14:54:27;3.47;;;3.17;;
13349;SDS011;6744;53.190;6.576;2023-08-24T14:56:53;3.77;;;3.47;;
13349;SDS011;6744;53.190;6.576;2023-08-24T14:59:18;4.30;;;4.00;;
13349;SDS011;6744;53.190;6.576;2023-08-24T15:01:43;4.10;;;3.70;;
13349;SDS011;6744;53.190;6.576;2023-08-24T15:04:10;4.03;;;3.63;;
13349;SDS011;6744;53.190;6.576;2023-08-24T15:06:35;4.07;;;3.77;;
13349;SDS011;6744;53.190;6.576;2023-08-24T15:09:00;4.03;;;3.73;;
13349;SDS011;6744;53.190;6.576;2023-08-24T15:11:26;4.10;;;3.80;;